createdAt,value
2023-04-17T00:01:47.823Z,19.64
2023-04-17T00:04:16.690Z,19.04
2023-04-17T00:06:45.205Z,20.21
2023-04-17T00:09:13.816Z,18.99
2023-04-17T00:11:42.398Z,19.45
2023-04-17T00:14:10.912Z,20.27
2023-04-17T00:16:39.459Z,20.62
2023-04-17T00:19:07.906Z,20.60
2023-04-17T00:21:36.350Z,20.09
2023-04-17T00:24:05.017Z,20.39
2023-04-17T00:26:34.610Z,18.36
2023-04-17T00:29:03.055Z,19.57
2023-04-17T00:31:31.540Z,19.07
2023-04-17T00:34:01.373Z,20.13
2023-04-17T00:36:31.821Z,20.89
2023-04-17T00:39:00.579Z,20.03
2023-04-17T00:41:29.129Z,20.15
2023-04-17T00:43:57.582Z,20.68
2023-04-17T00:46:26.154Z,19.25
2023-04-17T00:48:55.043Z,20.66
2023-04-17T00:51:23.590Z,20.15
2023-04-17T00:53:52.289Z,20.61
2023-04-17T00:56:21.568Z,21.34
2023-04-17T00:58:50.581Z,21.11
2023-04-17T01:01:19.102Z,19.84
2023-04-17T01:03:49.191Z,19.69
2023-04-17T01:06:17.694Z,19.22
2023-04-17T01:08:46.257Z,20.88
2023-04-17T01:11:14.667Z,20.95
2023-04-17T01:13:46.635Z,20.72
2023-04-17T01:16:15.591Z,20.26
2023-04-17T01:18:44.298Z,20.75
2023-04-17T01:21:12.903Z,19.75
2023-04-17T01:23:52.994Z,20.04
2023-04-17T01:26:25.552Z,20.34
2023-04-17T01:28:58.424Z,20.33
2023-04-17T01:31:30.383Z,19.05
2023-04-17T01:34:00.353Z,19.84
2023-04-17T01:36:29.376Z,20.72
2023-04-17T01:38:57.840Z,20.56
2023-04-17T01:41:26.420Z,19.40
2023-04-17T01:43:54.806Z,20.46
2023-04-17T01:46:23.327Z,19.79
2023-04-17T01:48:52.221Z,20.70
2023-04-17T01:51:20.786Z,19.62
2023-04-17T01:53:49.161Z,20.16
2023-04-17T01:56:17.947Z,19.34
2023-04-17T01:58:46.357Z,20.04
2023-04-17T02:01:14.824Z,20.55
2023-04-17T02:03:43.343Z,19.17
2023-04-17T02:06:12.140Z,20.09
2023-04-17T02:08:40.734Z,20.94
2023-04-17T02:11:10.184Z,19.34
2023-04-17T02:13:38.559Z,19.21
2023-04-17T02:16:07.588Z,18.88
2023-04-17T02:18:36.004Z,19.82
2023-04-17T02:21:04.358Z,19.66
2023-04-17T02:23:32.818Z,20.67
2023-04-17T02:26:01.199Z,20.78
2023-04-17T02:28:29.763Z,18.47
2023-04-17T02:30:58.930Z,20.00
2023-04-17T02:33:28.091Z,21.14
2023-04-17T02:35:56.472Z,20.89
2023-04-17T02:38:25.037Z,20.38
2023-04-17T02:40:53.455Z,19.55
2023-04-17T02:43:21.921Z,19.96
2023-04-17T02:45:50.415Z,19.82
2023-04-17T02:48:18.848Z,20.57
2023-04-17T02:50:47.297Z,19.86
2023-04-17T02:53:15.738Z,20.39
2023-04-17T02:55:44.308Z,18.74
2023-04-17T02:58:13.455Z,20.72
2023-04-17T03:00:42.018Z,19.53
2023-04-17T03:03:10.509Z,20.43
2023-04-17T03:05:39.019Z,19.52
2023-04-17T03:08:07.511Z,20.09
2023-04-17T03:10:35.928Z,21.00
2023-04-17T03:13:04.507Z,20.43
2023-04-17T03:15:33.155Z,20.05
2023-04-17T03:18:01.653Z,20.45
2023-04-17T03:20:30.177Z,20.75
2023-04-17T03:22:58.556Z,20.54
2023-04-17T03:25:26.933Z,19.18
2023-04-17T03:27:56.527Z,18.59
2023-04-17T03:30:25.422Z,19.05
2023-04-17T03:32:53.882Z,19.23
2023-04-17T03:35:22.610Z,20.09
2023-04-17T03:37:51.356Z,20.85
2023-04-17T03:40:19.785Z,20.54
2023-04-17T03:42:48.726Z,20.35
2023-04-17T03:45:17.117Z,20.32
2023-04-17T03:47:47.604Z,19.90
2023-04-17T03:50:16.201Z,18.89
2023-04-17T03:52:44.641Z,19.40
2023-04-17T03:55:13.083Z,18.48
2023-04-17T03:57:41.528Z,19.36
2023-04-17T04:00:10.570Z,20.91
2023-04-17T04:02:39.026Z,18.61
2023-04-17T04:05:07.894Z,19.02
2023-04-17T04:07:36.331Z,18.60
2023-04-17T04:10:05.247Z,18.77
2023-04-17T04:12:33.686Z,17.53
2023-04-17T04:15:02.342Z,18.81
2023-04-17T04:17:30.829Z,18.37
2023-04-17T04:19:59.772Z,18.78
2023-04-17T04:22:29.508Z,19.35
2023-04-17T04:24:57.990Z,18.89
2023-04-17T04:27:27.669Z,18.64
2023-04-17T04:29:58.859Z,18.79
2023-04-17T04:32:28.279Z,19.38
2023-04-17T04:34:58.408Z,19.64
2023-04-17T04:37:30.004Z,18.66
2023-04-17T04:40:10.900Z,18.89
2023-04-17T04:42:39.754Z,20.73
2023-04-17T04:45:09.316Z,20.06
2023-04-17T04:47:37.857Z,20.08
2023-04-17T04:50:06.961Z,21.17
2023-04-17T04:52:35.830Z,20.04
2023-04-17T04:55:04.771Z,18.83
2023-04-17T04:57:33.172Z,20.62
2023-04-17T05:00:01.621Z,20.14
2023-04-17T05:02:30.531Z,19.32
2023-04-17T05:04:59.036Z,21.03
2023-04-17T05:07:27.549Z,19.33
2023-04-17T05:09:56.381Z,18.75
2023-04-17T05:12:24.828Z,19.79
2023-04-17T05:14:53.189Z,20.25
2023-04-17T05:17:21.768Z,20.16
2023-04-17T05:19:50.345Z,19.66
2023-04-17T05:22:18.771Z,19.72
2023-04-17T05:24:47.164Z,20.25
2023-04-17T05:27:16.483Z,18.98
2023-04-17T05:29:44.958Z,18.36
2023-04-17T05:32:13.404Z,20.73
2023-04-17T05:34:41.785Z,20.29
2023-04-17T05:37:10.222Z,19.69
2023-04-17T05:39:38.642Z,19.95
2023-04-17T05:42:07.088Z,18.92
2023-04-17T05:44:35.436Z,20.51
2023-04-17T05:47:03.926Z,19.43
2023-04-17T05:49:32.342Z,19.70
2023-04-17T05:52:00.835Z,19.57
2023-04-17T05:54:30.363Z,20.61
2023-04-17T05:56:58.794Z,19.48
2023-04-17T05:59:27.363Z,18.70
2023-04-17T06:01:55.884Z,19.06
2023-04-17T06:04:24.691Z,20.83
2023-04-17T06:06:54.292Z,19.95
2023-04-17T06:09:24.476Z,17.70
2023-04-17T06:11:54.060Z,19.52
2023-04-17T06:14:22.665Z,19.73
2023-04-17T06:16:51.195Z,17.83
2023-04-17T06:19:19.717Z,19.99
2023-04-17T06:21:48.455Z,20.15
2023-04-17T06:24:17.244Z,19.32
2023-04-17T06:26:45.840Z,19.27
2023-04-17T06:29:15.480Z,19.68
2023-04-17T06:31:43.923Z,20.42
2023-04-17T06:34:12.451Z,19.69
2023-04-17T06:36:41.218Z,20.28
2023-04-17T06:39:09.819Z,20.23
2023-04-17T06:41:38.408Z,18.47
2023-04-17T06:44:07.650Z,18.67
2023-04-17T06:46:36.266Z,18.86
2023-04-17T06:49:04.726Z,20.12
2023-04-17T06:51:33.196Z,20.18
2023-04-17T06:54:01.597Z,20.85
2023-04-17T06:56:30.045Z,21.33
2023-04-17T06:58:59.806Z,20.30
2023-04-17T07:01:31.339Z,19.77
2023-04-17T07:03:59.870Z,19.14
2023-04-17T07:06:29.058Z,19.67
2023-04-17T07:08:57.589Z,19.75
2023-04-17T07:11:26.113Z,20.27
2023-04-17T07:13:54.688Z,19.64
2023-04-17T07:16:23.230Z,19.16
2023-04-17T07:18:52.151Z,18.88
2023-04-17T07:21:20.734Z,17.97
2023-04-17T07:23:49.149Z,19.19
2023-04-17T07:26:17.690Z,18.58
2023-04-17T07:28:46.198Z,20.45
2023-04-17T07:31:14.603Z,20.48
2023-04-17T07:33:43.070Z,19.12
2023-04-17T07:36:12.057Z,18.78
2023-04-17T07:38:42.168Z,19.42
2023-04-17T07:41:12.317Z,17.94
2023-04-17T07:43:41.137Z,17.70
2023-04-17T07:46:09.513Z,19.17
2023-04-17T07:48:40.336Z,20.34
2023-04-17T07:51:08.773Z,20.09
2023-04-17T07:53:38.686Z,20.21
2023-04-17T07:56:07.093Z,20.24
2023-04-17T07:58:35.968Z,20.94
2023-04-17T08:01:07.760Z,18.63
2023-04-17T08:03:36.403Z,17.95
2023-04-17T08:06:05.221Z,19.79
2023-04-17T08:08:33.681Z,19.08
2023-04-17T08:11:02.114Z,20.67
2023-04-17T08:13:32.074Z,20.02
2023-04-17T08:16:01.458Z,17.60
2023-04-17T08:18:29.962Z,20.80
2023-04-17T08:20:58.328Z,20.71
2023-04-17T08:23:27.056Z,19.48
2023-04-17T08:25:55.577Z,18.52
2023-04-17T08:28:24.649Z,19.21
2023-04-17T08:30:53.130Z,19.95
2023-04-17T08:33:21.693Z,20.70
2023-04-17T08:35:51.403Z,19.93
2023-04-17T08:38:19.794Z,19.27
2023-04-17T08:40:51.953Z,19.29
2023-04-17T08:43:22.411Z,17.91
2023-04-17T08:45:54.111Z,20.88
2023-04-17T08:48:24.210Z,19.75
2023-04-17T08:50:53.658Z,19.23
2023-04-17T08:53:22.172Z,18.98
2023-04-17T08:55:50.593Z,18.96
2023-04-17T08:58:21.885Z,19.31
2023-04-17T09:00:50.655Z,20.02
2023-04-17T09:03:19.530Z,19.68
2023-04-17T09:05:48.656Z,21.45
2023-04-17T09:08:24.078Z,21.15
2023-04-17T09:10:54.459Z,20.02
2023-04-17T09:13:25.203Z,21.90
2023-04-17T09:16:08.277Z,21.66
2023-04-17T09:18:37.817Z,19.65
2023-04-17T09:21:07.455Z,19.86
2023-04-17T09:23:49.668Z,21.44
2023-04-17T09:26:20.992Z,20.47
2023-04-17T09:29:03.868Z,21.24
2023-04-17T09:31:34.689Z,19.94
2023-04-17T09:34:09.110Z,20.18
2023-04-17T09:36:39.139Z,20.78
2023-04-17T09:39:23.808Z,19.64
2023-04-17T09:42:04.070Z,21.32
2023-04-17T09:44:34.026Z,21.44
2023-04-17T09:47:04.795Z,20.23
2023-04-17T09:49:34.238Z,20.31
2023-04-17T09:52:03.754Z,20.00
2023-04-17T09:54:37.669Z,22.00
2023-04-17T09:57:08.488Z,21.40
2023-04-17T09:59:41.964Z,22.61
2023-04-17T10:02:13.780Z,20.25
2023-04-17T10:04:44.459Z,19.99
2023-04-17T10:07:13.879Z,21.71
2023-04-17T10:09:45.361Z,22.59
2023-04-17T10:12:16.295Z,20.54
2023-04-17T10:14:48.544Z,20.76
2023-04-17T10:17:24.663Z,20.89
2023-04-17T10:19:53.242Z,20.39
2023-04-17T10:22:21.767Z,19.82
2023-04-17T10:25:12.608Z,21.70
2023-04-17T10:27:41.489Z,21.26
2023-04-17T10:30:13.797Z,21.84
2023-04-17T10:32:45.043Z,23.00
2023-04-17T10:35:16.602Z,21.22
2023-04-17T10:37:48.051Z,22.24
2023-04-17T10:40:22.380Z,22.08
2023-04-17T10:43:33.761Z,21.45
2023-04-17T10:46:08.642Z,22.57
2023-04-17T10:48:39.232Z,23.01
2023-04-17T10:51:27.158Z,23.81
2023-04-17T10:53:58.509Z,20.53
2023-04-17T10:56:49.273Z,20.97
2023-04-17T10:59:19.220Z,22.93
2023-04-17T11:01:47.613Z,22.77
2023-04-17T11:04:21.291Z,21.91
2023-04-17T11:06:52.592Z,21.52
2023-04-17T11:09:27.839Z,21.86
2023-04-17T11:12:01.325Z,22.64
2023-04-17T11:14:30.707Z,23.97
2023-04-17T11:16:59.335Z,22.56
2023-04-17T11:19:27.972Z,23.00
2023-04-17T11:22:01.298Z,22.93
2023-04-17T11:24:31.391Z,23.07
2023-04-17T11:27:01.125Z,24.20
2023-04-17T11:29:29.657Z,24.08
2023-04-17T11:32:00.148Z,23.56
2023-04-17T11:34:28.600Z,24.31
2023-04-17T11:36:58.950Z,23.19
2023-04-17T11:39:34.614Z,25.07
2023-04-17T11:42:03.738Z,24.66
2023-04-17T11:44:32.414Z,25.21
2023-04-17T11:47:02.190Z,21.89
2023-04-17T11:49:32.564Z,20.95
2023-04-17T11:52:02.263Z,23.79
2023-04-17T11:54:38.129Z,23.79
2023-04-17T11:57:09.286Z,22.20
2023-04-17T11:59:39.552Z,22.29
2023-04-17T12:02:09.303Z,23.40
2023-04-17T12:04:39.735Z,23.03
2023-04-17T12:07:20.729Z,24.14
2023-04-17T12:09:57.591Z,24.10
2023-04-17T12:12:26.288Z,22.81
2023-04-17T12:14:54.746Z,22.86
2023-04-17T12:17:23.181Z,22.55
2023-04-17T12:19:51.876Z,21.50
2023-04-17T12:22:20.424Z,23.66
2023-04-17T12:24:48.888Z,21.31
2023-04-17T12:27:17.363Z,22.92
2023-04-17T12:29:45.959Z,23.60
2023-04-17T12:32:16.007Z,23.41
2023-04-17T12:34:44.493Z,24.39
2023-04-17T12:37:12.892Z,24.99
2023-04-17T12:39:41.500Z,23.42
2023-04-17T12:42:10.063Z,22.32
2023-04-17T12:47:07.989Z,22.56
2023-04-17T12:49:36.372Z,22.59
2023-04-17T12:52:04.825Z,24.76
2023-04-17T12:54:33.466Z,22.39
2023-04-17T12:57:02.094Z,23.67
2023-04-17T12:59:30.617Z,23.29
2023-04-17T13:01:59.300Z,24.34
2023-04-17T13:04:28.392Z,23.54
2023-04-17T13:06:56.958Z,24.64
2023-04-17T13:09:25.586Z,23.47
2023-04-17T13:11:54.201Z,23.66
2023-04-17T13:14:22.610Z,24.02
2023-04-17T13:16:51.136Z,22.64
2023-04-17T13:19:20.226Z,23.43
2023-04-17T13:21:51.770Z,25.57
2023-04-17T13:24:20.402Z,24.71
2023-04-17T13:26:48.852Z,22.86
2023-04-17T13:29:19.311Z,23.97
2023-04-17T13:31:48.343Z,25.17
2023-04-17T13:34:17.036Z,25.08
2023-04-17T13:36:46.474Z,25.49
2023-04-17T13:39:15.115Z,25.30
2023-04-17T13:41:43.883Z,25.85
2023-04-17T13:44:13.657Z,24.01
2023-04-17T13:46:42.139Z,24.35
2023-04-17T13:49:11.381Z,24.79
2023-04-17T13:51:40.162Z,23.58
2023-04-17T13:54:10.132Z,26.21
2023-04-17T13:56:38.849Z,22.56
2023-04-17T13:59:07.401Z,24.02
2023-04-17T14:01:35.913Z,24.19
2023-04-17T14:04:05.026Z,24.23
2023-04-17T14:06:34.758Z,25.37
2023-04-17T14:09:03.447Z,26.29
2023-04-17T14:11:32.008Z,25.20
2023-04-17T14:14:00.451Z,25.50
2023-04-17T14:16:28.969Z,24.72
2023-04-17T14:19:01.377Z,24.99
2023-04-17T14:21:36.034Z,26.03
2023-04-17T14:24:04.507Z,25.48
2023-04-17T14:26:33.139Z,24.03
2023-04-17T14:29:01.622Z,24.39
2023-04-17T14:31:31.155Z,24.62
2023-04-17T14:33:59.557Z,23.76
2023-04-17T14:36:27.977Z,25.98
2023-04-17T14:38:56.469Z,26.33
2023-04-17T14:41:29.798Z,24.94
2023-04-17T14:43:58.313Z,25.18
2023-04-17T14:46:26.920Z,25.73
2023-04-17T14:48:56.380Z,25.15
2023-04-17T14:51:25.028Z,23.76
2023-04-17T14:53:53.538Z,24.58
2023-04-17T14:56:22.176Z,25.11
2023-04-17T14:58:50.766Z,25.43
2023-04-17T15:01:19.184Z,24.26
2023-04-17T15:03:48.911Z,24.77
2023-04-17T15:06:18.707Z,24.04
2023-04-17T15:08:47.228Z,23.45
2023-04-17T15:11:15.974Z,23.24
2023-04-17T15:13:44.365Z,24.28
2023-04-17T15:16:12.802Z,24.36
2023-04-17T15:18:41.230Z,24.21
2023-04-17T15:21:09.788Z,22.21
2023-04-17T15:23:38.198Z,22.97
2023-04-17T15:26:06.665Z,23.79
2023-04-17T15:28:36.038Z,25.41
2023-04-17T15:31:04.557Z,24.56
2023-04-17T15:33:33.558Z,23.26
2023-04-17T15:36:02.039Z,24.72
2023-04-17T15:38:30.617Z,24.04
2023-04-17T15:40:59.210Z,23.63
2023-04-17T15:43:27.589Z,23.50
2023-04-17T15:45:56.184Z,23.84
2023-04-17T15:48:24.609Z,25.72
2023-04-17T15:50:53.111Z,25.65
2023-04-17T15:53:21.797Z,25.40
2023-04-17T15:55:52.021Z,26.20
2023-04-17T15:58:20.533Z,26.56
2023-04-17T16:00:49.099Z,25.54
2023-04-17T16:03:17.749Z,24.91
2023-04-17T16:05:46.293Z,24.03
2023-04-17T16:08:14.745Z,24.44
2023-04-17T16:10:43.193Z,23.23
2023-04-17T16:13:11.629Z,24.95
2023-04-17T16:15:40.185Z,24.18
2023-04-17T16:18:08.810Z,25.57
2023-04-17T16:20:39.156Z,24.87
2023-04-17T16:23:07.690Z,25.20
2023-04-17T16:25:36.325Z,23.90
2023-04-17T16:28:04.756Z,24.03
2023-04-17T16:30:33.166Z,24.54
2023-04-17T16:33:01.637Z,23.42
2023-04-17T16:35:30.151Z,23.52
2023-04-17T16:37:58.545Z,24.72
2023-04-17T16:40:27.144Z,25.20
2023-04-17T16:42:55.527Z,25.39
2023-04-17T16:45:23.948Z,23.91
2023-04-17T16:47:52.581Z,25.47
2023-04-17T16:50:21.272Z,24.55
2023-04-17T16:52:50.349Z,23.82
2023-04-17T16:55:18.804Z,24.90
2023-04-17T16:57:48.048Z,23.93
2023-04-17T17:00:16.752Z,24.72
2023-04-17T17:02:45.361Z,23.97
2023-04-17T17:05:15.549Z,26.07
2023-04-17T17:07:43.982Z,24.90
2023-04-17T17:10:12.489Z,25.54
2023-04-17T17:12:41.161Z,23.62
2023-04-17T17:15:10.117Z,24.68
2023-04-17T17:17:38.668Z,24.06
2023-04-17T17:20:07.905Z,25.51
2023-04-17T17:22:36.295Z,25.14
2023-04-17T17:25:05.283Z,24.21
2023-04-17T17:27:33.753Z,23.96
2023-04-17T17:30:03.053Z,24.52
2023-04-17T17:32:31.581Z,25.63
2023-04-17T17:35:00.143Z,26.30
2023-04-17T17:37:28.612Z,26.35
2023-04-17T17:39:57.037Z,25.36
2023-04-17T17:42:25.371Z,24.19
2023-04-17T17:44:53.828Z,24.37
2023-04-17T17:47:22.275Z,25.05
2023-04-17T17:49:50.776Z,24.94
2023-04-17T17:52:19.199Z,25.39
2023-04-17T17:54:47.644Z,25.14
2023-04-17T17:57:16.014Z,25.06
2023-04-17T17:59:45.076Z,26.14
2023-04-17T18:02:13.813Z,26.24
2023-04-17T18:04:42.269Z,26.04
2023-04-17T18:07:10.731Z,25.85
2023-04-17T18:09:39.095Z,26.08
2023-04-17T18:12:07.690Z,25.52
2023-04-17T18:14:36.255Z,26.21
2023-04-17T18:17:04.679Z,26.42
2023-04-17T18:19:33.217Z,26.54
2023-04-17T18:22:01.572Z,26.23
2023-04-17T18:24:30.626Z,25.82
2023-04-17T18:26:59.032Z,26.34
2023-04-17T18:29:27.562Z,25.94
2023-04-17T18:31:56.160Z,25.68
2023-04-17T18:34:24.693Z,25.21
2023-04-17T18:36:53.190Z,25.01
2023-04-17T18:39:21.673Z,25.79
2023-04-17T18:41:50.239Z,25.69
2023-04-17T18:44:18.678Z,25.90
2023-04-17T18:46:48.344Z,26.10
2023-04-17T18:49:17.020Z,26.21
2023-04-17T18:51:47.847Z,25.87
2023-04-17T18:54:17.493Z,25.74
2023-04-17T18:56:45.965Z,25.83
2023-04-17T18:59:14.801Z,25.23
2023-04-17T19:01:43.463Z,25.85
2023-04-17T19:04:12.027Z,24.57
2023-04-17T19:06:40.867Z,25.20
2023-04-17T19:09:09.316Z,25.70
2023-04-17T19:11:37.789Z,25.03
2023-04-17T19:14:06.205Z,25.35
2023-04-17T19:16:34.716Z,25.65
2023-04-17T19:19:05.354Z,25.34
2023-04-17T19:21:34.530Z,25.59
2023-04-17T19:24:03.628Z,25.27
2023-04-17T19:26:31.980Z,25.91
2023-04-17T19:29:00.641Z,25.59
2023-04-17T19:31:29.043Z,25.26
2023-04-17T19:33:57.488Z,24.52
2023-04-17T19:36:27.418Z,24.88
2023-04-17T19:38:59.022Z,25.16
2023-04-17T19:41:27.858Z,24.53
2023-04-17T19:43:56.347Z,24.17
2023-04-17T19:46:25.779Z,24.15
2023-04-17T19:48:54.245Z,23.76
2023-04-17T19:51:22.735Z,24.52
2023-04-17T19:53:53.152Z,24.09
2023-04-17T19:56:21.656Z,24.39
2023-04-17T19:58:50.177Z,22.56
2023-04-17T20:01:18.955Z,23.72
2023-04-17T20:03:47.712Z,23.24
2023-04-17T20:06:16.346Z,24.47
2023-04-17T20:08:45.103Z,23.01
2023-04-17T20:11:15.935Z,24.03
2023-04-17T20:13:44.349Z,24.06
2023-04-17T20:16:12.794Z,23.89
2023-04-17T20:18:43.358Z,24.20
2023-04-17T20:21:12.592Z,24.28
2023-04-17T20:23:41.149Z,24.05
2023-04-17T20:26:09.741Z,24.32
2023-04-17T20:28:38.122Z,23.29
2023-04-17T20:31:06.711Z,24.22
2023-04-17T20:33:35.514Z,22.59
2023-04-17T20:36:05.156Z,23.06
2023-04-17T20:38:33.572Z,24.17
2023-04-17T20:41:01.996Z,23.90
2023-04-17T20:43:33.263Z,24.03
2023-04-17T20:46:02.222Z,23.66
2023-04-17T20:48:30.779Z,23.75
2023-04-17T20:51:02.093Z,23.40
2023-04-17T20:53:30.569Z,23.39
2023-04-17T20:55:58.957Z,23.17
2023-04-17T20:58:27.473Z,22.93
2023-04-17T21:01:01.228Z,23.48
2023-04-17T21:03:31.172Z,22.68
2023-04-17T21:06:00.190Z,23.27
2023-04-17T21:08:28.683Z,22.52
2023-04-17T21:10:57.255Z,22.37
2023-04-17T21:13:26.475Z,21.36
2023-04-17T21:15:55.023Z,21.83
2023-04-17T21:18:23.596Z,21.50
2023-04-17T21:20:52.113Z,23.17
2023-04-17T21:23:20.673Z,22.27
2023-04-17T21:25:51.723Z,22.93
2023-04-17T21:28:20.500Z,21.88
2023-04-17T21:30:48.984Z,22.63
2023-04-17T21:33:17.685Z,22.45
2023-04-17T21:35:46.247Z,23.26
2023-04-17T21:38:14.679Z,23.37
2023-04-17T21:40:51.156Z,22.60
2023-04-17T21:43:20.047Z,22.36
2023-04-17T21:45:49.686Z,21.43
2023-04-17T21:48:18.403Z,22.40
2023-04-17T21:50:46.858Z,23.30
2023-04-17T21:53:15.502Z,22.62
2023-04-17T21:55:43.926Z,21.53
2023-04-17T21:58:12.373Z,21.34
2023-04-17T22:00:40.969Z,22.83
2023-04-17T22:03:09.579Z,23.02
2023-04-17T22:05:38.170Z,22.45
2023-04-17T22:08:06.712Z,23.08
2023-04-17T22:10:35.494Z,22.57
2023-04-17T22:13:03.936Z,23.05
2023-04-17T22:15:32.406Z,21.63
2023-04-17T22:18:00.990Z,22.74
2023-04-17T22:20:29.477Z,22.25
2023-04-17T22:22:57.917Z,23.07
2023-04-17T22:25:26.525Z,22.78
2023-04-17T22:27:55.000Z,22.50
2023-04-17T22:30:23.649Z,22.06
2023-04-17T22:32:52.078Z,22.92
2023-04-17T22:35:20.729Z,22.34
2023-04-17T22:37:49.288Z,22.17
2023-04-17T22:40:17.831Z,20.78
2023-04-17T22:42:46.366Z,20.59
2023-04-17T22:45:14.907Z,20.92
2023-04-17T22:47:43.423Z,22.24
2023-04-17T22:50:13.785Z,21.31
2023-04-17T22:52:42.213Z,21.81
2023-04-17T22:55:11.113Z,22.38
2023-04-17T22:57:39.590Z,22.18
2023-04-17T23:00:09.674Z,21.64
2023-04-17T23:02:38.340Z,22.40
2023-04-17T23:05:07.447Z,21.64
2023-04-17T23:07:35.940Z,22.14
2023-04-17T23:10:04.696Z,21.84
2023-04-17T23:12:33.229Z,21.57
2023-04-17T23:15:01.834Z,22.23
2023-04-17T23:17:31.081Z,21.63
2023-04-17T23:19:59.617Z,21.83
2023-04-17T23:22:28.068Z,21.37
2023-04-17T23:24:57.126Z,21.30
2023-04-17T23:27:25.944Z,21.53
2023-04-17T23:29:54.422Z,21.29
2023-04-17T23:32:23.086Z,21.76
2023-04-17T23:34:51.708Z,21.85
2023-04-17T23:37:20.136Z,21.66
2023-04-17T23:39:48.642Z,21.01
2023-04-17T23:42:17.433Z,21.71
2023-04-17T23:44:45.857Z,21.04
2023-04-17T23:47:14.319Z,21.59
2023-04-17T23:49:42.843Z,21.24
2023-04-17T23:52:11.341Z,20.45
2023-04-17T23:54:39.799Z,21.31
2023-04-17T23:57:08.409Z,21.54
2023-04-17T23:59:36.831Z,20.87
